Time;durP1;ratioP1;P1;durP2;ratioP2;P2;SDS_P1;SDS_P2;PMS_P1;PMS_P2;Temp;Humidity;BMP_temperature;BMP_pressure;BME280_temperature;BME280_humidity;BME280_pressure;Samples;Min_cycle;Max_cycle;Signal;HPM_P1;HPM_P2
2022/03/09 00:02:13;;;;;;;8.00;6.00;;;4.70;61.10;;;;;;6184660;23;20025;-79
2022/03/09 00:04:39;;;;;;;8.52;6.35;;;4.70;61.30;;;;;;6187163;23;20079;-79
2022/03/09 00:07:04;;;;;;;8.57;5.90;;;4.70;61.20;;;;;;6212030;23;20016;-79
2022/03/09 00:09:31;;;;;;;9.55;6.22;;;4.70;61.40;;;;;;6213539;23;20433;-79
2022/03/09 00:11:56;;;;;;;9.45;6.22;;;4.70;61.30;;;;;;6185862;23;20031;-79
2022/03/09 00:14:22;;;;;;;9.27;6.38;;;4.70;61.30;;;;;;6184325;23;20021;-79
2022/03/09 00:16:47;;;;;;;9.90;6.60;;;4.70;61.50;;;;;;6186735;23;20529;-80
2022/03/09 00:19:13;;;;;;;9.40;6.80;;;4.70;61.30;;;;;;6214015;23;20021;-79
2022/03/09 00:21:39;;;;;;;10.10;6.57;;;4.70;61.50;;;;;;6183715;23;20024;-80
2022/03/09 00:24:05;;;;;;;9.32;7.07;;;4.70;61.50;;;;;;6184873;23;20012;-79
2022/03/09 00:26:30;;;;;;;11.90;7.10;;;4.70;61.60;;;;;;6186149;23;20099;-79
2022/03/09 00:28:56;;;;;;;9.52;6.82;;;4.70;61.70;;;;;;6211571;23;20020;-79
2022/03/09 00:31:21;;;;;;;9.25;6.97;;;4.60;61.80;;;;;;6186448;23;20095;-79
2022/03/09 00:33:47;;;;;;;9.38;6.88;;;4.60;61.90;;;;;;6211618;23;20027;-79
2022/03/09 00:36:13;;;;;;;9.80;6.82;;;4.60;62.10;;;;;;6186024;23;20048;-79
2022/03/09 00:38:39;;;;;;;12.45;7.32;;;4.60;62.00;;;;;;6213291;23;20074;-79
2022/03/09 00:41:04;;;;;;;10.05;7.20;;;4.60;62.20;;;;;;6216694;23;20015;-79
2022/03/09 00:43:30;;;;;;;9.60;7.30;;;4.60;62.10;;;;;;6212505;23;20012;-79
2022/03/09 00:45:55;;;;;;;10.05;7.13;;;4.60;62.10;;;;;;6186361;23;20098;-79
2022/03/09 00:48:21;;;;;;;9.55;6.93;;;4.60;62.30;;;;;;6212408;23;20016;-79
2022/03/09 00:50:47;;;;;;;15.07;7.18;;;4.60;62.30;;;;;;6186133;23;20029;-79
2022/03/09 00:53:13;;;;;;;9.55;7.30;;;4.50;62.50;;;;;;6186215;23;20044;-79
2022/03/09 00:55:39;;;;;;;10.45;7.20;;;4.50;62.60;;;;;;6210941;23;20044;-78
2022/03/09 00:58:06;;;;;;;10.50;7.40;;;4.50;62.60;;;;;;6184701;23;20384;-78
2022/03/09 01:00:32;;;;;;;10.52;7.10;;;4.50;62.60;;;;;;6186196;23;20519;-78
2022/03/09 01:02:57;;;;;;;10.82;7.00;;;4.50;62.90;;;;;;6208223;23;20021;-78
2022/03/09 01:05:23;;;;;;;11.70;7.00;;;4.50;63.10;;;;;;6185816;23;20025;-78
2022/03/09 01:07:49;;;;;;;8.68;7.15;;;4.50;63.10;;;;;;6184477;23;20016;-78
2022/03/09 01:10:14;;;;;;;10.63;7.43;;;4.50;63.10;;;;;;6210999;23;20027;-78
2022/03/09 01:12:41;;;;;;;10.52;7.60;;;4.50;63.30;;;;;;6184873;23;20017;-78
2022/03/09 01:15:07;;;;;;;11.15;7.93;;;4.40;63.60;;;;;;6185341;23;20356;-79
2022/03/09 01:17:33;;;;;;;10.07;7.60;;;4.40;63.90;;;;;;6210461;23;20016;-78
2022/03/09 01:19:59;;;;;;;10.35;7.90;;;4.40;64.20;;;;;;6211820;23;20069;-79
2022/03/09 01:22:25;;;;;;;10.95;7.68;;;4.40;64.40;;;;;;6186366;23;20392;-78
2022/03/09 01:24:51;;;;;;;10.77;7.70;;;4.30;64.60;;;;;;6210256;23;20016;-78
2022/03/09 01:27:16;;;;;;;10.98;7.90;;;4.30;64.80;;;;;;6212852;23;20021;-78
2022/03/09 01:29:42;;;;;;;10.55;7.93;;;4.30;65.10;;;;;;6185050;23;20460;-78
2022/03/09 01:32:08;;;;;;;9.93;7.90;;;4.30;65.20;;;;;;6185249;23;20052;-78
2022/03/09 01:34:34;;;;;;;11.48;8.18;;;4.30;65.40;;;;;;6186237;23;20016;-78
2022/03/09 01:36:59;;;;;;;10.32;8.38;;;4.30;65.90;;;;;;6210849;23;20104;-79
2022/03/09 01:39:25;;;;;;;10.18;8.27;;;4.20;66.30;;;;;;6184965;23;20017;-78
2022/03/09 01:41:51;;;;;;;11.00;8.23;;;4.20;66.70;;;;;;6185424;23;20459;-78
2022/03/09 01:44:20;;;;;;;12.68;8.32;;;4.20;66.80;;;;;;6212049;23;20016;-79
2022/03/09 01:46:48;;;;;;;11.40;8.30;;;4.20;67.00;;;;;;6209858;23;20092;-78
2022/03/09 01:49:15;;;;;;;11.90;8.07;;;4.10;67.30;;;;;;6186274;23;20528;-79
2022/03/09 01:51:44;;;;;;;12.43;8.35;;;4.20;67.60;;;;;;6185022;23;20056;-78
2022/03/09 01:54:10;;;;;;;10.73;8.13;;;4.10;67.90;;;;;;6185554;23;20013;-78
2022/03/09 01:56:36;;;;;;;10.75;8.50;;;4.10;68.20;;;;;;6185452;23;20058;-78
2022/03/09 01:59:04;;;;;;;12.98;8.88;;;4.10;68.40;;;;;;6182526;23;20431;-79
2022/03/09 02:01:30;;;;;;;11.30;7.93;;;4.10;68.60;;;;;;6185440;23;20020;-79
2022/03/09 02:03:57;;;;;;;14.40;9.27;;;4.00;68.60;;;;;;6212217;23;20019;-78
2022/03/09 02:06:23;;;;;;;10.37;7.70;;;4.00;69.10;;;;;;6184308;23;20016;-78
2022/03/09 02:11:34;;;;;;;10.55;7.90;;;4.00;69.50;;;;;;6212099;23;20024;-79
2022/03/09 02:14:00;;;;;;;10.70;8.82;;;4.00;69.70;;;;;;6183422;23;20025;-78
2022/03/09 02:16:26;;;;;;;12.15;8.40;;;4.00;70.00;;;;;;6210924;23;20092;-78
2022/03/09 02:18:52;;;;;;;11.88;9.00;;;3.90;70.30;;;;;;6185351;23;20344;-78
2022/03/09 02:21:19;;;;;;;11.32;8.70;;;3.80;70.80;;;;;;6211383;23;20084;-78
2022/03/09 02:23:46;;;;;;;11.32;8.85;;;3.80;71.10;;;;;;6184477;23;20054;-78
2022/03/09 02:26:13;;;;;;;12.40;8.77;;;3.70;71.60;;;;;;6209775;23;20096;-78
2022/03/09 02:28:39;;;;;;;12.70;8.32;;;3.60;71.90;;;;;;6214035;23;20129;-78
2022/03/09 02:31:06;;;;;;;14.65;10.07;;;3.60;72.30;;;;;;6186174;23;20024;-78
2022/03/09 02:33:32;;;;;;;11.77;8.07;;;3.50;72.80;;;;;;6210919;23;20027;-78
2022/03/09 02:35:58;;;;;;;10.23;8.25;;;3.50;73.30;;;;;;6210702;23;20028;-79
2022/03/09 02:38:24;;;;;;;13.15;9.25;;;3.40;74.00;;;;;;6210531;23;20084;-78
2022/03/09 02:40:49;;;;;;;12.55;8.88;;;3.30;75.60;;;;;;6183071;23;20028;-78
2022/03/09 02:43:15;;;;;;;12.98;8.38;;;3.30;76.30;;;;;;6184831;23;20025;-78
2022/03/09 02:45:41;;;;;;;12.48;9.38;;;3.20;77.00;;;;;;6184555;23;20028;-79
2022/03/09 02:48:06;;;;;;;12.35;8.38;;;3.20;77.60;;;;;;6207902;23;20392;-79
2022/03/09 02:50:32;;;;;;;12.95;9.40;;;3.20;77.70;;;;;;6213258;23;20094;-78
2022/03/09 02:52:57;;;;;;;14.50;8.23;;;3.10;78.20;;;;;;6209732;23;20036;-79
2022/03/09 02:55:23;;;;;;;11.18;8.43;;;3.10;78.30;;;;;;6210471;23;20020;-78
2022/03/09 02:57:49;;;;;;;11.80;8.75;;;3.10;78.50;;;;;;6211131;23;20016;-79
2022/03/09 03:00:14;;;;;;;11.80;9.38;;;3.10;78.80;;;;;;6212229;23;20067;-78
2022/03/09 03:02:40;;;;;;;12.23;9.15;;;3.00;79.10;;;;;;6211441;23;20066;-78
2022/03/09 03:05:07;;;;;;;11.80;9.20;;;3.10;79.30;;;;;;6211479;23;20075;-78
2022/03/09 03:07:33;;;;;;;13.43;9.10;;;3.00;79.70;;;;;;6211859;23;20135;-78
2022/03/09 03:09:58;;;;;;;14.15;8.82;;;3.00;79.80;;;;;;6210189;23;20424;-78
2022/03/09 03:12:24;;;;;;;11.63;7.93;;;3.00;79.70;;;;;;6183041;23;20139;-78
2022/03/09 03:14:50;;;;;;;12.38;8.32;;;3.00;80.10;;;;;;6211231;23;20075;-78
2022/03/09 03:17:15;;;;;;;14.43;9.38;;;3.00;80.60;;;;;;6184944;23;20119;-79
2022/03/09 03:19:41;;;;;;;11.63;8.38;;;3.00;80.90;;;;;;6211078;23;20016;-78
2022/03/09 03:22:07;;;;;;;13.80;8.55;;;3.00;80.90;;;;;;6183871;23;20067;-78
2022/03/09 03:24:32;;;;;;;11.25;8.27;;;3.00;80.80;;;;;;6210785;23;20032;-78
2022/03/09 03:26:58;;;;;;;14.10;8.68;;;3.00;80.50;;;;;;6184530;23;20032;-78
2022/03/09 03:29:23;;;;;;;12.07;9.23;;;3.00;80.50;;;;;;6212049;23;20021;-78
2022/03/09 03:31:49;;;;;;;13.73;8.35;;;3.00;80.30;;;;;;6209266;23;20023;-79
2022/03/09 03:34:15;;;;;;;11.52;8.27;;;3.00;80.40;;;;;;6211107;23;20013;-78
2022/03/09 03:36:40;;;;;;;12.43;8.80;;;3.00;80.50;;;;;;6212441;23;20021;-78
2022/03/09 03:39:06;;;;;;;10.82;8.45;;;3.00;80.30;;;;;;6183317;23;20016;-79
2022/03/09 03:41:31;;;;;;;13.27;9.32;;;3.00;80.10;;;;;;6185359;23;20031;-78
2022/03/09 03:43:57;;;;;;;12.18;8.68;;;3.00;80.00;;;;;;6209286;23;20091;-78
2022/03/09 03:46:23;;;;;;;11.43;8.38;;;3.00;79.60;;;;;;6211858;23;20067;-78
2022/03/09 03:48:48;;;;;;;11.65;8.57;;;3.00;79.10;;;;;;6183032;23;20036;-78
2022/03/09 03:51:14;;;;;;;11.00;8.93;;;3.10;78.80;;;;;;6211143;23;20040;-79
2022/03/09 03:53:40;;;;;;;10.57;8.23;;;3.10;78.20;;;;;;6210659;23;20460;-79
2022/03/09 03:56:06;;;;;;;11.50;8.65;;;3.10;77.70;;;;;;6185059;23;20021;-78
2022/03/09 03:58:32;;;;;;;13.32;8.75;;;3.10;77.30;;;;;;6208626;23;20024;-78
2022/03/09 04:00:58;;;;;;;12.93;9.50;;;3.10;77.10;;;;;;6183559;23;20043;-78
2022/03/09 04:03:24;;;;;;;14.05;9.02;;;3.10;76.70;;;;;;6183780;23;20440;-78
2022/03/09 04:05:49;;;;;;;12.20;8.98;;;3.10;76.60;;;;;;6209448;23;20024;-80
2022/03/09 04:08:15;;;;;;;12.60;8.98;;;3.10;76.00;;;;;;6183330;23;20063;-78
2022/03/09 04:10:40;;;;;;;11.57;8.82;;;3.20;75.90;;;;;;6211721;23;20460;-79
2022/03/09 04:13:06;;;;;;;12.55;9.32;;;3.10;76.10;;;;;;6182630;23;20028;-79
2022/03/09 04:15:32;;;;;;;12.95;8.55;;;3.10;76.30;;;;;;6210593;23;20118;-79
2022/03/09 04:17:58;;;;;;;12.30;8.63;;;3.10;76.50;;;;;;6213759;23;20015;-79
2022/03/09 04:20:23;;;;;;;12.80;8.65;;;3.10;77.30;;;;;;6210245;23;20119;-79
2022/03/09 04:22:49;;;;;;;12.52;9.40;;;3.10;78.00;;;;;;6183810;23;20020;-79
2022/03/09 04:25:15;;;;;;;14.27;9.07;;;3.00;78.90;;;;;;6185332;23;20104;-78
2022/03/09 04:27:41;;;;;;;10.88;8.50;;;3.00;79.30;;;;;;6211039;23;20405;-79
2022/03/09 04:30:08;;;;;;;12.82;9.43;;;3.00;79.70;;;;;;6208961;23;20059;-79
2022/03/09 04:32:34;;;;;;;11.70;8.82;;;2.90;80.40;;;;;;6211346;23;20019;-78
2022/03/09 04:35:01;;;;;;;13.07;9.93;;;2.90;80.60;;;;;;6208930;23;20052;-79
2022/03/09 04:37:30;;;;;;;12.20;8.30;;;2.80;81.20;;;;;;6211546;23;20023;-79
2022/03/09 04:40:00;;;;;;;11.82;8.55;;;2.80;81.60;;;;;;6185434;23;20047;-79
2022/03/09 04:42:26;;;;;;;12.10;9.02;;;2.70;82.10;;;;;;6185833;23;20095;-79
2022/03/09 04:44:53;;;;;;;13.37;9.77;;;2.70;82.30;;;;;;6185896;23;20027;-79
2022/03/09 04:47:19;;;;;;;11.80;8.90;;;2.60;82.90;;;;;;6209053;23;20097;-79
2022/03/09 04:49:45;;;;;;;14.18;9.93;;;2.50;83.40;;;;;;6185134;23;20048;-79
2022/03/09 04:52:10;;;;;;;12.40;9.52;;;2.50;84.50;;;;;;6211769;23;20044;-79
2022/03/09 04:54:36;;;;;;;14.73;9.52;;;2.50;85.00;;;;;;6182619;23;20016;-79
2022/03/09 04:57:02;;;;;;;12.85;9.30;;;2.50;85.60;;;;;;6185510;23;20024;-79
2022/03/09 04:59:27;;;;;;;12.98;9.60;;;2.50;85.70;;;;;;6187077;23;20016;-79
2022/03/09 05:01:53;;;;;;;12.73;8.77;;;2.50;86.00;;;;;;6181536;23;20027;-78
2022/03/09 05:04:19;;;;;;;13.27;9.27;;;2.40;86.40;;;;;;6213085;23;20016;-78
2022/03/09 05:06:44;;;;;;;13.93;9.85;;;2.40;86.30;;;;;;6185293;23;20521;-78
2022/03/09 05:09:10;;;;;;;13.07;8.82;;;2.30;86.90;;;;;;6185898;23;20048;-78
2022/03/09 05:11:35;;;;;;;13.57;9.98;;;2.30;87.40;;;;;;6213295;23;20128;-79
2022/03/09 05:14:01;;;;;;;16.05;10.73;;;2.30;88.30;;;;;;6186208;23;20079;-78
2022/03/09 05:16:27;;;;;;;13.20;9.27;;;2.20;88.80;;;;;;6183465;23;20021;-79
2022/03/09 05:18:52;;;;;;;12.27;9.45;;;2.20;88.90;;;;;;6212650;23;20023;-78
2022/03/09 05:21:18;;;;;;;14.02;9.52;;;2.10;89.00;;;;;;6212128;23;20024;-78
2022/03/09 05:23:43;;;;;;;13.52;9.43;;;2.10;89.60;;;;;;6184197;23;20032;-80
2022/03/09 05:26:09;;;;;;;14.07;9.77;;;2.10;90.40;;;;;;6186786;23;20016;-79
2022/03/09 05:28:35;;;;;;;13.07;9.52;;;2.10;90.50;;;;;;6186824;23;20024;-79
2022/03/09 05:31:00;;;;;;;13.27;8.95;;;2.10;90.60;;;;;;6182546;23;20444;-80
2022/03/09 05:33:26;;;;;;;13.02;9.55;;;2.10;90.80;;;;;;6212763;23;20013;-80
2022/03/09 05:35:52;;;;;;;18.45;13.02;;;2.10;90.70;;;;;;6212236;23;20337;-79
2022/03/09 05:38:17;;;;;;;17.25;13.32;;;2.10;90.90;;;;;;6184782;23;20016;-79
2022/03/09 05:40:43;;;;;;;18.02;13.68;;;2.10;90.90;;;;;;6212677;23;20017;-79
2022/03/09 05:43:09;;;;;;;19.25;12.23;;;2.00;91.00;;;;;;6185272;23;20024;-79
2022/03/09 05:45:34;;;;;;;15.70;10.40;;;2.00;91.60;;;;;;6184260;23;20034;-80
2022/03/09 05:48:00;;;;;;;15.55;10.77;;;2.00;91.80;;;;;;6211591;23;20087;-79
2022/03/09 05:50:26;;;;;;;12.63;9.93;;;2.00;92.20;;;;;;6185934;23;20025;-79
2022/03/09 05:52:51;;;;;;;13.65;10.02;;;1.90;92.40;;;;;;6210639;23;20433;-80
2022/03/09 05:55:17;;;;;;;15.43;10.63;;;1.90;92.40;;;;;;6212498;23;20048;-79
2022/03/09 05:57:43;;;;;;;15.75;9.68;;;1.90;92.60;;;;;;6184916;23;20119;-80
2022/03/09 06:00:09;;;;;;;15.75;10.40;;;1.80;92.70;;;;;;6211355;23;20023;-80
2022/03/09 06:02:35;;;;;;;16.52;10.20;;;1.80;93.30;;;;;;6185125;23;20437;-80
2022/03/09 06:05:00;;;;;;;14.95;10.77;;;1.80;93.60;;;;;;6183581;23;20020;-80
2022/03/09 06:07:26;;;;;;;15.65;10.52;;;1.90;93.60;;;;;;6213612;23;20491;-80
2022/03/09 06:09:51;;;;;;;15.18;10.90;;;1.90;93.50;;;;;;6185136;23;20040;-79
2022/03/09 06:12:18;;;;;;;14.52;10.15;;;1.90;93.50;;;;;;6184536;23;20021;-80
2022/03/09 06:14:43;;;;;;;18.70;10.90;;;1.90;93.40;;;;;;6183493;23;20028;-80
2022/03/09 06:17:09;;;;;;;15.68;10.50;;;1.90;93.40;;;;;;6184562;23;20009;-80
2022/03/09 06:19:35;;;;;;;15.63;10.48;;;1.90;93.30;;;;;;6210622;23;20070;-79
2022/03/09 06:22:00;;;;;;;15.48;10.70;;;1.90;93.50;;;;;;6184821;23;20012;-79
2022/03/09 06:24:26;;;;;;;16.48;10.57;;;1.90;93.40;;;;;;6184902;23;20021;-79
2022/03/09 06:26:53;;;;;;;14.15;10.50;;;1.90;93.40;;;;;;6211022;23;20020;-79
2022/03/09 06:29:19;;;;;;;13.93;10.52;;;1.90;93.20;;;;;;6184929;23;20028;-79
2022/03/09 06:31:46;;;;;;;14.50;9.80;;;2.00;93.20;;;;;;6210665;23;20028;-79
2022/03/09 06:34:12;;;;;;;14.77;10.38;;;2.00;93.50;;;;;;6183230;23;20016;-79
2022/03/09 06:36:43;;;;;;;15.05;10.63;;;2.10;93.60;;;;;;6182732;23;20527;-79
2022/03/09 06:39:09;;;;;;;13.50;9.43;;;2.10;93.30;;;;;;6184855;23;20020;-79
2022/03/09 06:41:35;;;;;;;16.58;10.10;;;2.10;93.00;;;;;;6210171;23;20024;-81
2022/03/09 06:44:00;;;;;;;15.15;10.73;;;2.10;93.00;;;;;;6182922;23;20029;-77
2022/03/09 06:46:26;;;;;;;15.50;10.55;;;2.20;93.20;;;;;;6209831;23;20031;-80
2022/03/09 06:48:52;;;;;;;14.77;10.10;;;2.20;93.10;;;;;;6178963;23;20024;-80
2022/03/09 06:51:17;;;;;;;14.60;9.75;;;2.30;92.60;;;;;;6211004;23;20024;-81
2022/03/09 06:53:45;;;;;;;16.05;10.75;;;2.30;92.60;;;;;;6184034;23;20021;-80
2022/03/09 06:56:11;;;;;;;14.93;10.10;;;2.40;92.70;;;;;;6210937;23;20024;-80
2022/03/09 06:58:37;;;;;;;14.95;10.40;;;2.40;92.40;;;;;;6185109;23;20015;-85
2022/03/09 07:01:02;;;;;;;16.00;10.50;;;2.40;92.50;;;;;;6181801;23;20028;-79
2022/03/09 07:03:28;;;;;;;15.73;10.23;;;2.50;92.20;;;;;;6184820;23;20100;-79
2022/03/09 07:05:54;;;;;;;16.70;10.63;;;2.50;92.00;;;;;;6183841;23;20055;-79
2022/03/09 07:08:20;;;;;;;14.57;10.93;;;2.60;91.80;;;;;;6184208;23;20128;-79
2022/03/09 07:10:46;;;;;;;12.82;10.43;;;2.60;91.50;;;;;;6183676;23;20023;-79
2022/03/09 07:13:12;;;;;;;16.15;10.43;;;2.70;91.10;;;;;;6211580;23;20609;-79
2022/03/09 07:15:37;;;;;;;13.80;10.40;;;2.80;90.90;;;;;;6208801;23;20060;-79
2022/03/09 07:18:03;;;;;;;14.00;10.10;;;2.80;90.90;;;;;;6183797;23;20017;-79
2022/03/09 07:20:29;;;;;;;17.65;10.10;;;2.90;90.70;;;;;;6210483;23;20091;-79
2022/03/09 07:22:54;;;;;;;14.63;11.35;;;3.00;90.50;;;;;;6208106;23;20071;-79
2022/03/09 07:25:20;;;;;;;13.80;9.95;;;3.00;90.00;;;;;;6211411;23;20017;-79
2022/03/09 07:27:46;;;;;;;14.82;10.25;;;3.10;89.00;;;;;;6183161;23;20016;-79
2022/03/09 07:30:12;;;;;;;15.30;10.60;;;3.10;87.90;;;;;;6209525;23;20071;-79
2022/03/09 07:32:38;;;;;;;18.80;10.75;;;3.20;87.60;;;;;;6182192;23;20020;-79
2022/03/09 07:35:04;;;;;;;15.93;10.20;;;3.30;87.30;;;;;;6184338;23;20021;-79
2022/03/09 07:37:29;;;;;;;14.32;10.05;;;3.30;86.70;;;;;;6209787;23;20017;-79
2022/03/09 07:39:55;;;;;;;12.93;10.25;;;3.40;85.80;;;;;;6184480;23;20067;-79
2022/03/09 07:42:21;;;;;;;12.52;10.40;;;3.50;85.70;;;;;;6210204;23;20048;-79
2022/03/09 07:44:46;;;;;;;13.60;10.70;;;3.50;84.70;;;;;;6182176;23;20020;-79
2022/03/09 07:47:13;;;;;;;14.18;10.23;;;3.60;83.00;;;;;;6211227;23;20067;-78
2022/03/09 07:49:38;;;;;;;15.30;11.18;;;3.70;82.40;;;;;;6211476;23;20048;-79
2022/03/09 07:52:05;;;;;;;14.07;9.85;;;3.70;81.40;;;;;;6210664;23;20020;-78
2022/03/09 07:54:31;;;;;;;14.93;9.85;;;3.80;80.70;;;;;;6211138;23;20563;-78
2022/03/09 07:56:57;;;;;;;13.77;10.52;;;3.90;80.30;;;;;;6186951;23;20048;-78
2022/03/09 07:59:23;;;;;;;12.70;9.95;;;3.90;80.10;;;;;;6183980;23;20021;-78
2022/03/09 08:01:53;;;;;;;15.05;10.27;;;4.00;79.80;;;;;;6182508;23;20035;-78
2022/03/09 08:04:23;;;;;;;15.93;10.20;;;4.10;78.00;;;;;;6181553;23;20028;-75
2022/03/09 08:06:52;;;;;;;14.00;9.88;;;4.20;76.10;;;;;;6183094;23;20066;-79
2022/03/09 08:09:18;;;;;;;15.70;9.88;;;4.20;75.70;;;;;;6185492;23;20018;-83
2022/03/09 08:11:44;;;;;;;14.43;10.05;;;4.30;74.10;;;;;;6184862;23;20025;-79
2022/03/09 08:14:11;;;;;;;12.60;9.25;;;4.40;72.60;;;;;;6186377;23;20020;-77
2022/03/09 08:16:36;;;;;;;15.13;9.57;;;4.50;72.20;;;;;;6186667;23;20391;-75
2022/03/09 08:19:03;;;;;;;12.65;9.43;;;4.50;72.50;;;;;;6211605;23;20111;-75
2022/03/09 08:21:29;;;;;;;13.93;9.95;;;4.60;72.90;;;;;;6186394;23;20330;-75
2022/03/09 08:23:54;;;;;;;17.27;10.43;;;4.70;72.00;;;;;;6185822;23;20034;-75
2022/03/09 08:26:20;;;;;;;13.20;9.57;;;4.80;71.50;;;;;;6212858;23;20021;-75
2022/03/09 08:28:46;;;;;;;15.15;10.40;;;4.90;71.50;;;;;;6187038;23;20089;-76
2022/03/09 08:31:11;;;;;;;12.25;10.05;;;4.90;71.10;;;;;;6187763;23;20365;-75
2022/03/09 08:33:37;;;;;;;13.07;9.77;;;5.00;70.60;;;;;;6186065;23;20021;-78
2022/03/09 08:36:03;;;;;;;14.57;9.82;;;5.10;70.00;;;;;;6185942;23;20034;-79
2022/03/09 08:38:29;;;;;;;12.75;9.52;;;5.20;69.70;;;;;;6215011;23;20017;-81
2022/03/09 08:40:55;;;;;;;13.32;9.60;;;5.20;69.00;;;;;;6185248;23;20322;-79
2022/03/09 08:43:21;;;;;;;13.02;10.10;;;5.30;68.50;;;;;;6214007;23;20016;-81
2022/03/09 08:45:47;;;;;;;14.05;10.15;;;5.40;68.10;;;;;;6213534;23;20027;-81
2022/03/09 08:48:13;;;;;;;12.88;9.48;;;5.40;67.60;;;;;;6186625;23;20468;-80
2022/03/09 08:50:42;;;;;;;14.85;9.20;;;5.50;67.20;;;;;;6186308;23;20452;-78
2022/03/09 08:53:08;;;;;;;12.13;9.05;;;5.60;66.20;;;;;;6186508;23;20021;-77
2022/03/09 08:55:33;;;;;;;14.88;9.18;;;5.60;65.90;;;;;;6212922;23;20066;-80
2022/03/09 08:58:00;;;;;;;12.80;9.25;;;5.70;65.70;;;;;;6185395;23;20017;-76
2022/03/09 09:00:26;;;;;;;12.70;9.18;;;5.80;65.10;;;;;;6187669;23;20101;-78
2022/03/09 09:02:52;;;;;;;12.18;9.23;;;5.80;64.10;;;;;;6184594;23;20020;-77
2022/03/09 09:05:18;;;;;;;13.25;8.93;;;5.90;63.90;;;;;;6213164;23;20024;-77
2022/03/09 09:07:44;;;;;;;13.00;8.80;;;6.00;63.90;;;;;;6211791;23;20346;-77
2022/03/09 09:10:10;;;;;;;13.77;9.20;;;6.00;62.80;;;;;;6187123;23;20020;-77
2022/03/09 09:12:36;;;;;;;14.07;9.35;;;6.10;62.10;;;;;;6186562;23;20059;-78
2022/03/09 09:15:03;;;;;;;13.35;8.95;;;6.20;62.10;;;;;;6184746;23;20648;-79
2022/03/09 09:17:28;;;;;;;14.82;9.98;;;6.30;61.90;;;;;;6213167;23;20036;-78
2022/03/09 09:19:54;;;;;;;11.05;8.30;;;6.30;61.30;;;;;;6211933;23;20020;-78
2022/03/09 09:22:20;;;;;;;14.50;8.45;;;6.40;61.80;;;;;;6185615;23;20013;-78
2022/03/09 09:24:46;;;;;;;13.25;9.45;;;6.50;60.90;;;;;;6184992;23;20017;-77
2022/03/09 09:27:12;;;;;;;13.57;8.15;;;6.60;60.50;;;;;;6185747;23;20075;-81
2022/03/09 09:29:37;;;;;;;11.18;8.32;;;6.60;60.40;;;;;;6212142;23;20016;-87
2022/03/09 09:32:03;;;;;;;13.23;9.27;;;6.70;60.10;;;;;;6186392;23;20039;-79
2022/03/09 09:34:29;;;;;;;10.88;9.00;;;6.80;60.30;;;;;;6186585;23;20017;-79
2022/03/09 09:36:55;;;;;;;11.23;8.57;;;6.80;60.20;;;;;;6211174;23;20016;-77
2022/03/09 09:39:21;;;;;;;11.95;8.65;;;6.90;60.20;;;;;;6186662;23;20020;-77
2022/03/09 09:41:52;;;;;;;11.52;8.88;;;7.00;59.80;;;;;;6184240;23;20023;-80
2022/03/09 09:44:21;;;;;;;12.13;8.48;;;7.10;59.10;;;;;;6185195;23;20104;-78
2022/03/09 09:46:46;;;;;;;10.88;8.27;;;7.10;59.10;;;;;;6215823;23;20072;-80
2022/03/09 09:49:14;;;;;;;12.40;9.13;;;7.20;59.90;;;;;;6213395;23;20086;-80
2022/03/09 09:51:42;;;;;;;12.90;8.80;;;7.30;59.80;;;;;;6185476;23;20128;-80
2022/03/09 09:54:08;;;;;;;;;;;7.40;59.50;;;;;;6185892;23;20348;-80
2022/03/09 09:56:41;;;;;;;13.43;9.13;;;7.40;59.00;;;;;;6212624;23;19915;-79
2022/03/09 09:59:08;;;;;;;13.70;9.52;;;7.50;59.20;;;;;;6183905;23;20020;-80
2022/03/09 10:01:35;;;;;;;12.52;9.43;;;7.50;59.10;;;;;;6213104;23;20021;-81
2022/03/09 10:04:01;;;;;;;12.63;9.05;;;7.60;58.50;;;;;;6184076;23;20043;-79
2022/03/09 10:06:27;;;;;;;13.98;9.43;;;7.70;57.80;;;;;;6185881;23;20019;-79
2022/03/09 10:09:07;;;;;;;12.45;9.77;;;7.80;57.30;;;;;;6185470;23;20091;-80
2022/03/09 10:11:51;;;;;;;12.45;9.15;;;7.90;56.60;;;;;;6212077;23;20012;-79
2022/03/09 10:14:37;;;;;;;11.88;8.73;;;8.00;56.40;;;;;;6212561;23;20020;-80
2022/03/09 10:17:34;;;;;;;12.68;9.00;;;8.00;56.30;;;;;;6185706;23;20024;-78
2022/03/09 10:20:11;;;;;;;12.68;8.48;;;8.00;56.00;;;;;;6179399;23;20103;-81
2022/03/09 10:22:44;;;;;;;13.48;8.93;;;8.20;57.60;;;;;;6185570;23;20441;-78
2022/03/09 10:25:09;;;;;;;12.35;8.90;;;8.20;57.30;;;;;;6212115;23;20024;-76
2022/03/09 10:27:41;;;;;;;10.85;8.63;;;8.30;57.10;;;;;;6211205;23;20068;-76
2022/03/09 10:30:16;;;;;;;11.75;8.43;;;8.40;55.90;;;;;;6185793;23;20028;-76
2022/03/09 10:32:57;;;;;;;11.40;8.82;;;8.50;55.40;;;;;;6212354;23;20048;-76
2022/03/09 10:35:29;;;;;;;11.68;8.48;;;8.50;55.40;;;;;;6185876;23;20017;-76
2022/03/09 10:37:55;;;;;;;13.90;9.13;;;8.60;56.40;;;;;;6212376;23;20039;-76
2022/03/09 10:40:22;;;;;;;11.52;8.20;;;8.70;57.40;;;;;;6212267;23;20155;-76
2022/03/09 10:42:49;;;;;;;12.45;8.80;;;8.80;57.30;;;;;;6211989;23;20344;-81
2022/03/09 10:45:17;;;;;;;13.63;9.32;;;8.90;56.80;;;;;;6185489;23;20020;-77
2022/03/09 10:47:49;;;;;;;12.18;8.95;;;9.00;56.20;;;;;;6211466;23;20021;-87
2022/03/09 10:50:20;;;;;;;11.95;8.57;;;9.10;55.90;;;;;;6186064;23;20136;-87
2022/03/09 10:52:55;;;;;;;11.45;9.18;;;9.20;56.10;;;;;;6212772;23;20012;-86
2022/03/09 10:55:29;;;;;;;12.15;8.70;;;9.20;55.10;;;;;;6185194;23;20012;-87
2022/03/09 10:58:10;;;;;;;16.02;9.32;;;9.30;55.20;;;;;;6185680;23;20023;-88
2022/03/09 11:00:38;;;;;;;12.25;8.93;;;9.40;54.90;;;;;;6211747;23;20024;-87
2022/03/09 11:03:06;;;;;;;12.25;8.98;;;9.40;55.40;;;;;;6211375;23;20472;-81
2022/03/09 11:05:31;;;;;;;;;;;9.50;55.40;;;;;;6186143;23;20055;-81
2022/03/09 11:07:57;;;;;;;11.60;9.00;;;9.60;55.20;;;;;;6211044;23;19920;-82
2022/03/09 11:10:25;;;;;;;11.45;9.13;;;9.60;55.10;;;;;;6186059;23;20445;-82
2022/03/09 11:12:51;;;;;;;;;;;9.70;54.40;;;;;;6185706;23;20016;-82
2022/03/09 11:15:19;;;;;;;11.35;9.32;;;9.80;54.10;;;;;;6185304;23;19991;-82
2022/03/09 11:17:48;;;;;;;13.43;9.75;;;9.80;54.60;;;;;;6212190;23;20051;-82
2022/03/09 11:20:15;;;;;;;11.52;9.55;;;10.00;54.00;;;;;;6212551;23;20507;-75
2022/03/09 11:22:41;;;;;;;;;;;10.00;52.90;;;;;;6209763;23;20047;-74
2022/03/09 11:25:08;;;;;;;11.90;9.57;;;10.00;52.30;;;;;;6211083;23;19924;-79
2022/03/09 11:27:40;;;;;;;11.13;9.25;;;10.00;52.60;;;;;;6212889;23;20012;-78
2022/03/09 11:30:27;;;;;;;11.35;8.75;;;10.10;52.70;;;;;;6211023;23;20091;-74
2022/03/09 11:32:55;;;;;;;13.43;9.38;;;10.30;52.00;;;;;;6184942;23;20040;-77
2022/03/09 11:35:35;;;;;;;12.50;9.60;;;10.20;52.00;;;;;;6214140;23;20471;-80
2022/03/09 11:38:03;;;;;;;12.05;9.40;;;10.30;51.60;;;;;;6211485;23;20730;-80
2022/03/09 11:40:29;;;;;;;15.02;9.70;;;10.30;51.60;;;;;;6184910;23;20021;-76
2022/03/09 11:42:55;;;;;;;15.25;9.85;;;10.40;51.70;;;;;;6211092;23;20020;-75
2022/03/09 11:45:27;;;;;;;13.77;9.07;;;10.40;51.40;;;;;;6168199;23;20056;-75
2022/03/09 11:47:59;;;;;;;13.05;9.68;;;10.50;51.00;;;;;;6156626;23;20039;-76
2022/03/09 11:50:26;;;;;;;12.15;9.48;;;10.50;51.10;;;;;;6182069;23;20028;-75
2022/03/09 11:53:00;;;;;;;12.02;9.50;;;10.60;51.80;;;;;;6183268;23;20025;-78
2022/03/09 11:55:26;;;;;;;15.85;10.07;;;10.60;51.30;;;;;;6183698;23;20092;-77
2022/03/09 11:58:07;;;;;;;16.40;9.50;;;10.70;51.50;;;;;;6155478;23;20032;-76
2022/03/09 12:00:35;;;;;;;12.15;9.23;;;10.80;51.00;;;;;;6184350;23;20017;-76
2022/03/09 12:03:01;;;;;;;46.28;12.45;;;10.80;50.70;;;;;;6156965;23;20028;-76
2022/03/09 12:05:38;;;;;;;14.23;9.18;;;10.90;50.70;;;;;;6183139;23;20019;-76
2022/03/09 12:08:05;;;;;;;;;;;10.90;50.10;;;;;;6157619;23;20144;-76
2022/03/09 12:10:47;;;;;;;11.48;9.15;;;10.90;50.90;;;;;;6183026;23;19922;-77
2022/03/09 12:13:25;;;;;;;12.20;9.75;;;11.00;50.70;;;;;;6184086;23;20039;-74
2022/03/09 12:16:12;;;;;;;17.55;9.32;;;11.00;50.60;;;;;;6156667;23;20013;-74
2022/03/09 12:18:38;;;;;;;13.15;9.10;;;11.10;49.90;;;;;;6182913;23;20468;-74
2022/03/09 12:21:05;;;;;;;11.85;8.90;;;11.10;50.20;;;;;;6183023;23;20017;-74
2022/03/09 12:23:31;;;;;;;12.48;8.85;;;11.20;50.20;;;;;;6183740;23;20084;-73
2022/03/09 12:25:58;;;;;;;12.90;9.27;;;11.30;50.30;;;;;;6155637;23;20025;-73
2022/03/09 12:28:23;;;;;;;13.82;9.60;;;11.40;49.50;;;;;;6183984;23;20040;-73
2022/03/09 12:31:07;;;;;;;11.98;9.32;;;11.40;48.60;;;;;;6182831;23;20449;-73
2022/03/09 12:33:41;;;;;;;10.77;9.13;;;11.40;48.80;;;;;;6156361;23;20020;-74
2022/03/09 12:36:12;;;;;;;13.05;9.32;;;11.50;48.60;;;;;;6183215;23;20037;-73
2022/03/09 12:38:44;;;;;;;12.80;9.40;;;11.50;48.30;;;;;;6182082;23;20017;-73
2022/03/09 12:41:30;;;;;;;12.77;9.60;;;11.60;48.00;;;;;;6156969;23;20086;-73
2022/03/09 12:44:16;;;;;;;11.93;9.25;;;11.60;47.40;;;;;;6183979;23;20020;-74
2022/03/09 12:46:44;;;;;;;11.93;10.00;;;11.70;46.50;;;;;;6185054;23;20087;-74
2022/03/09 12:49:15;;;;;;;11.82;9.73;;;11.60;46.30;;;;;;6186726;23;20020;-73